Time;durP1;ratioP1;P1;durP2;ratioP2;P2;SDS_P1;SDS_P2;PMS_P1;PMS_P2;Temp;Humidity;BMP_temperature;BMP_pressure;BME280_temperature;BME280_humidity;BME280_pressure;Samples;Min_cycle;Max_cycle;Signal;HPM_P1;HPM_P2
2024/04/15 00:02:18;;;;;;;4.25;2.30;;;;;;;;;;5520927;26;20002;-77
2024/04/15 00:04:45;;;;;;;7.28;2.92;;;;;;;;;;5477271;26;20013;-77
2024/04/15 00:07:13;;;;;;;3.40;2.53;;;;;;;;;;5505661;26;20379;-78
2024/04/15 00:09:41;;;;;;;3.42;2.20;;;;;;;;;;5506076;26;20010;-78
2024/04/15 00:12:08;;;;;;;3.05;2.22;;;;;;;;;;5499799;26;20006;-79
2024/04/15 00:14:35;;;;;;;3.92;2.38;;;;;;;;;;5499169;26;20009;-79
2024/04/15 00:17:03;;;;;;;4.32;2.55;;;;;;;;;;5473547;26;20027;-77
2024/04/15 00:19:31;;;;;;;6.43;2.75;;;;;;;;;;5505609;26;20324;-78
2024/04/15 00:21:58;;;;;;;4.03;2.70;;;;;;;;;;5475722;26;20067;-78
2024/04/15 00:24:26;;;;;;;3.70;2.42;;;;;;;;;;5499491;26;20022;-77
2024/04/15 00:26:53;;;;;;;4.05;3.08;;;;;;;;;;5471892;26;20007;-77
2024/04/15 00:29:21;;;;;;;5.38;3.00;;;;;;;;;;5490580;26;20009;-77
2024/04/15 00:31:48;;;;;;;6.45;2.92;;;;;;;;;;5477204;26;20066;-77
2024/04/15 00:34:16;;;;;;;4.95;2.97;;;;;;;;;;5476573;26;20038;-77
2024/04/15 00:36:44;;;;;;;4.72;2.40;;;;;;;;;;5477140;26;20002;-77
2024/04/15 00:39:12;;;;;;;4.85;2.90;;;;;;;;;;5489697;26;20001;-77
2024/04/15 00:41:39;;;;;;;3.28;2.70;;;;;;;;;;5476566;26;19998;-77
2024/04/15 00:44:07;;;;;;;3.83;2.67;;;;;;;;;;5457762;26;20033;-77
2024/04/15 00:46:34;;;;;;;4.65;3.50;;;;;;;;;;5454466;26;20007;-77
2024/04/15 00:49:03;;;;;;;3.80;3.10;;;;;;;;;;5485241;26;20073;-77
2024/04/15 00:51:30;;;;;;;6.32;3.28;;;;;;;;;;5470077;26;20006;-77
2024/04/15 00:53:58;;;;;;;3.63;2.47;;;;;;;;;;5500493;26;20002;-77
2024/04/15 00:56:26;;;;;;;5.68;2.92;;;;;;;;;;5491087;26;19998;-78
2024/04/15 00:58:53;;;;;;;3.28;3.00;;;;;;;;;;5475318;26;19998;-77
2024/04/15 01:01:21;;;;;;;6.80;3.15;;;;;;;;;;5469578;26;20006;-77
2024/04/15 01:03:49;;;;;;;5.75;2.63;;;;;;;;;;5489474;26;20002;-78
2024/04/15 01:06:17;;;;;;;8.50;2.97;;;;;;;;;;5476554;26;20021;-78
2024/04/15 01:08:45;;;;;;;6.45;2.92;;;;;;;;;;5506306;26;20035;-78
2024/04/15 01:11:13;;;;;;;4.68;2.92;;;;;;;;;;5499714;26;20010;-78
2024/04/15 01:13:41;;;;;;;8.13;3.63;;;;;;;;;;5499130;26;20010;-79
2024/04/15 01:16:08;;;;;;;5.45;2.85;;;;;;;;;;5476890;26;20022;-79
2024/04/15 01:18:36;;;;;;;6.05;3.05;;;;;;;;;;5482818;26;20009;-78
2024/04/15 01:21:04;;;;;;;5.18;3.08;;;;;;;;;;5503437;26;20010;-78
2024/04/15 01:23:37;;;;;;;9.10;3.97;;;;;;;;;;5484870;26;20006;-78
2024/04/15 01:26:04;;;;;;;7.40;3.35;;;;;;;;;;5503007;26;20325;-78
2024/04/15 01:28:32;;;;;;;6.88;3.90;;;;;;;;;;5477015;26;20002;-79
2024/04/15 01:30:59;;;;;;;5.32;3.83;;;;;;;;;;5503847;26;20324;-79
2024/04/15 01:33:27;;;;;;;7.65;4.07;;;;;;;;;;5469900;26;20544;-78
2024/04/15 01:35:54;;;;;;;8.63;3.92;;;;;;;;;;5499239;26;20009;-78
2024/04/15 01:38:21;;;;;;;7.18;4.00;;;;;;;;;;5475653;26;20010;-77
2024/04/15 01:40:49;;;;;;;5.93;4.15;;;;;;;;;;5476159;26;20069;-78
2024/04/15 01:43:17;;;;;;;11.32;4.30;;;;;;;;;;5505745;26;20494;-78
2024/04/15 01:45:45;;;;;;;6.10;3.83;;;;;;;;;;5476336;26;19994;-77
2024/04/15 01:48:13;;;;;;;6.63;3.72;;;;;;;;;;5498349;26;20002;-78
2024/04/15 01:50:40;;;;;;;7.60;4.20;;;;;;;;;;5498208;26;20006;-78
2024/04/15 01:53:11;;;;;;;9.90;4.40;;;;;;;;;;5513148;26;20014;-77
2024/04/15 01:55:39;;;;;;;9.18;3.85;;;;;;;;;;5497475;26;19995;-77
2024/04/15 01:58:06;;;;;;;10.05;4.35;;;;;;;;;;5517210;26;20038;-78
2024/04/15 02:00:34;;;;;;;8.77;4.53;;;;;;;;;;5504393;26;19994;-77
2024/04/15 02:03:04;;;;;;;6.10;4.10;;;;;;;;;;5471876;26;20024;-78
2024/04/15 02:05:32;;;;;;;12.43;4.63;;;;;;;;;;5468839;26;19998;-77
2024/04/15 02:07:59;;;;;;;10.27;4.15;;;;;;;;;;5499472;26;20355;-77
2024/04/15 02:10:27;;;;;;;9.85;3.75;;;;;;;;;;5490178;26;20017;-77
2024/04/15 02:12:54;;;;;;;8.80;3.67;;;;;;;;;;5483300;26;20491;-77
2024/04/15 02:15:22;;;;;;;10.27;3.75;;;;;;;;;;5503837;26;19994;-77
2024/04/15 02:17:49;;;;;;;8.95;3.88;;;;;;;;;;5460022;26;20070;-77
2024/04/15 02:20:17;;;;;;;6.68;4.13;;;;;;;;;;5482550;26;20013;-77
2024/04/15 02:22:44;;;;;;;8.98;4.55;;;;;;;;;;5468734;26;20010;-77
2024/04/15 02:25:12;;;;;;;7.18;3.90;;;;;;;;;;5483392;26;20032;-77
2024/04/15 02:27:39;;;;;;;7.47;3.63;;;;;;;;;;5480476;26;20067;-77
2024/04/15 02:30:07;;;;;;;7.75;3.55;;;;;;;;;;5499057;26;19998;-78
2024/04/15 02:32:35;;;;;;;6.88;3.67;;;;;;;;;;5479803;26;20339;-78
2024/04/15 02:35:02;;;;;;;8.05;4.00;;;;;;;;;;5504388;26;20010;-78
2024/04/15 02:37:29;;;;;;;10.20;3.83;;;;;;;;;;5507353;26;20010;-77
2024/04/15 02:39:57;;;;;;;8.85;4.20;;;;;;;;;;5476895;26;20006;-78
2024/04/15 02:42:24;;;;;;;10.85;4.60;;;;;;;;;;5472047;26;20352;-78
2024/04/15 02:44:52;;;;;;;10.38;4.32;;;;;;;;;;5500992;26;20006;-78
2024/04/15 02:47:19;;;;;;;7.65;4.60;;;;;;;;;;5471838;26;20011;-78
2024/04/15 02:49:46;;;;;;;8.30;3.92;;;;;;;;;;5470736;26;19994;-77
2024/04/15 02:52:14;;;;;;;5.28;4.53;;;;;;;;;;5478239;26;20002;-77
2024/04/15 02:54:42;;;;;;;9.88;3.90;;;;;;;;;;5480331;26;19999;-78
2024/04/15 02:57:09;;;;;;;11.43;4.30;;;;;;;;;;5476603;26;20002;-77
2024/04/15 02:59:38;;;;;;;8.85;4.38;;;;;;;;;;5507340;26;19994;-78
2024/04/15 03:02:06;;;;;;;9.10;4.03;;;;;;;;;;5518056;26;20002;-77
2024/04/15 03:04:33;;;;;;;6.13;4.65;;;;;;;;;;5511500;25;20448;-78
2024/04/15 03:07:01;;;;;;;9.65;4.88;;;;;;;;;;5506651;26;20013;-78
2024/04/15 03:09:28;;;;;;;9.18;4.47;;;;;;;;;;5497184;26;19991;-77
2024/04/15 03:11:55;;;;;;;9.65;5.10;;;;;;;;;;5471268;26;20010;-77
2024/04/15 03:14:23;;;;;;;8.88;4.97;;;;;;;;;;5464389;26;19994;-77
2024/04/15 03:16:50;;;;;;;6.85;4.78;;;;;;;;;;5477617;26;20077;-78
2024/04/15 03:19:18;;;;;;;9.63;5.93;;;;;;;;;;5476908;26;20009;-77
2024/04/15 03:21:45;;;;;;;12.00;6.63;;;;;;;;;;5477666;26;20043;-78
2024/04/15 03:24:13;;;;;;;9.15;5.65;;;;;;;;;;5471891;26;20002;-78
2024/04/15 03:26:40;;;;;;;7.80;5.35;;;;;;;;;;5499878;26;20464;-77
2024/04/15 03:29:08;;;;;;;18.27;6.20;;;;;;;;;;5499860;26;20023;-78
2024/04/15 03:31:35;;;;;;;10.85;5.93;;;;;;;;;;5499914;26;20013;-77
2024/04/15 03:34:03;;;;;;;16.75;6.78;;;;;;;;;;5503822;26;20006;-78
2024/04/15 03:36:31;;;;;;;11.52;6.50;;;;;;;;;;5478602;26;20348;-78
2024/04/15 03:38:58;;;;;;;12.75;7.13;;;;;;;;;;5486214;26;20005;-77
2024/04/15 03:41:25;;;;;;;13.18;7.70;;;;;;;;;;5505847;26;20026;-77
2024/04/15 03:43:53;;;;;;;10.73;7.85;;;;;;;;;;5476928;26;20006;-78
2024/04/15 03:46:20;;;;;;;13.73;9.20;;;;;;;;;;5470989;26;20100;-77
2024/04/15 03:48:48;;;;;;;13.52;8.30;;;;;;;;;;5456907;26;20006;-78
2024/04/15 03:51:16;;;;;;;11.82;8.02;;;;;;;;;;5485201;26;19999;-77
2024/04/15 03:53:44;;;;;;;15.35;8.23;;;;;;;;;;5469693;26;20000;-78
2024/04/15 03:56:11;;;;;;;9.75;8.32;;;;;;;;;;5500859;26;19999;-78
2024/04/15 03:58:38;;;;;;;15.45;8.32;;;;;;;;;;5471306;26;20050;-78
2024/04/15 04:01:06;;;;;;;14.43;8.88;;;;;;;;;;5500297;26;20318;-78
2024/04/15 04:03:33;;;;;;;15.30;8.88;;;;;;;;;;5448753;21;20048;-80
2024/04/15 04:06:00;;;;;;;13.23;9.13;;;;;;;;;;5384472;26;20034;-80
2024/04/15 04:08:38;;;;;;;13.05;8.43;;;;;;;;;;5384425;26;20004;-80
2024/04/15 04:11:06;;;;;;;16.33;9.88;;;;;;;;;;5383629;26;20008;-81
2024/04/15 04:13:35;;;;;;;19.52;11.43;;;;;;;;;;5384093;26;20008;-80
2024/04/15 04:16:03;;;;;;;16.10;10.35;;;;;;;;;;5368012;26;20015;-80
2024/04/15 04:18:30;;;;;;;13.40;11.65;;;;;;;;;;5382886;26;20012;-81
2024/04/15 04:20:58;;;;;;;15.27;11.25;;;;;;;;;;5383308;26;20014;-81
2024/04/15 04:23:25;;;;;;;12.77;10.63;;;;;;;;;;5384723;26;20413;-81
2024/04/15 04:25:53;;;;;;;12.90;10.50;;;;;;;;;;5388282;26;20011;-80
2024/04/15 04:28:20;;;;;;;14.73;10.20;;;;;;;;;;5387307;26;20011;-79
2024/04/15 04:30:47;;;;;;;13.75;11.35;;;;;;;;;;5382995;26;20019;-79
2024/04/15 04:33:15;;;;;;;14.73;11.05;;;;;;;;;;5381766;26;20036;-79
2024/04/15 04:35:42;;;;;;;14.45;11.32;;;;;;;;;;5382098;26;20000;-81
2024/04/15 04:38:10;;;;;;;14.52;12.40;;;;;;;;;;5376810;26;20328;-81
2024/04/15 04:40:37;;;;;;;17.58;11.93;;;;;;;;;;5372137;26;20466;-81
2024/04/15 04:43:04;;;;;;;15.93;12.05;;;;;;;;;;5366951;26;20055;-80
2024/04/15 04:45:32;;;;;;;19.38;11.82;;;;;;;;;;5383259;26;20008;-81
2024/04/15 04:48:00;;;;;;;19.67;13.50;;;;;;;;;;5381051;26;20015;-80
2024/04/15 04:50:28;;;;;;;16.05;13.40;;;;;;;;;;5374381;26;20024;-80
2024/04/15 04:52:55;;;;;;;17.75;12.80;;;;;;;;;;5377563;26;20032;-80
2024/04/15 04:55:25;;;;;;;16.77;14.35;;;;;;;;;;5385922;26;20012;-81
2024/04/15 04:57:52;;;;;;;20.02;13.32;;;;;;;;;;5382827;26;20008;-81
2024/04/15 05:00:20;;;;;;;15.52;13.32;;;;;;;;;;5384367;26;20035;-81
2024/04/15 05:02:48;;;;;;;19.58;13.98;;;;;;;;;;5383641;26;20012;-81
2024/04/15 05:05:15;;;;;;;16.42;14.45;;;;;;;;;;5363265;26;20537;-81
2024/04/15 05:07:43;;;;;;;16.92;15.02;;;;;;;;;;5375208;26;19997;-81
2024/04/15 05:10:10;;;;;;;17.48;15.00;;;;;;;;;;5368554;26;20005;-80
2024/04/15 05:12:37;;;;;;;16.75;14.60;;;;;;;;;;5381849;26;20015;-81
2024/04/15 05:15:05;;;;;;;17.88;14.77;;;;;;;;;;5381115;26;20485;-80
2024/04/15 05:17:32;;;;;;;17.00;14.02;;;;;;;;;;5383041;26;20012;-80
2024/04/15 05:20:00;;;;;;;18.98;16.02;;;;;;;;;;5384107;26;20000;-81
2024/04/15 05:22:27;;;;;;;17.98;14.18;;;;;;;;;;5383955;26;20014;-80
2024/04/15 05:24:56;;;;;;;20.40;14.35;;;;;;;;;;5381024;26;20081;-79
2024/04/15 05:27:23;;;;;;;15.32;13.70;;;;;;;;;;5384446;26;20012;-80
2024/04/15 05:29:51;;;;;;;17.52;13.40;;;;;;;;;;5380218;26;20081;-79
2024/04/15 05:32:18;;;;;;;20.05;15.88;;;;;;;;;;5381548;26;20607;-81
2024/04/15 05:34:46;;;;;;;18.00;13.93;;;;;;;;;;5384511;26;20004;-81
2024/04/15 05:37:13;;;;;;;22.85;14.90;;;;;;;;;;5384386;26;20015;-81
2024/04/15 05:39:41;;;;;;;18.15;13.95;;;;;;;;;;5384411;26;20008;-81
2024/04/15 05:42:10;;;;;;;15.57;13.27;;;;;;;;;;5366648;26;20036;-80
2024/04/15 05:44:37;;;;;;;15.68;13.80;;;;;;;;;;5382925;26;20016;-80
2024/04/15 05:47:04;;;;;;;18.05;13.60;;;;;;;;;;5380973;26;20028;-80
2024/04/15 05:49:37;;;;;;;19.98;15.07;;;;;;;;;;5381951;26;20462;-81
2024/04/15 05:52:05;;;;;;;20.43;15.33;;;;;;;;;;5381897;26;20004;-81
2024/04/15 05:54:32;;;;;;;21.90;13.95;;;;;;;;;;5382713;26;20005;-81
2024/04/15 05:57:01;;;;;;;19.25;15.00;;;;;;;;;;5382705;26;19996;-81
2024/04/15 05:59:29;;;;;;;15.95;14.20;;;;;;;;;;5381645;26;20004;-80
2024/04/15 06:01:56;;;;;;;16.60;14.50;;;;;;;;;;5380247;26;20050;-82
2024/04/15 06:04:24;;;;;;;21.10;15.25;;;;;;;;;;5382477;26;20008;-82
2024/04/15 06:06:51;;;;;;;22.77;15.30;;;;;;;;;;5383436;26;20008;-80
2024/04/15 06:09:19;;;;;;;17.95;14.45;;;;;;;;;;5385669;26;20048;-81
2024/04/15 06:11:46;;;;;;;16.30;14.10;;;;;;;;;;5385764;26;20004;-81
2024/04/15 06:14:14;;;;;;;16.63;14.15;;;;;;;;;;5385275;26;20082;-81
2024/04/15 06:16:41;;;;;;;15.18;13.55;;;;;;;;;;5387236;26;20015;-80
2024/04/15 06:19:09;;;;;;;18.25;14.27;;;;;;;;;;5386432;26;20019;-81
2024/04/15 06:21:37;;;;;;;18.45;13.98;;;;;;;;;;5385611;26;20007;-81
2024/04/15 06:24:04;;;;;;;15.23;13.30;;;;;;;;;;5385386;26;20014;-81
2024/04/15 06:26:31;;;;;;;14.82;12.88;;;;;;;;;;5384161;26;20070;-81
2024/04/15 06:28:59;;;;;;;16.67;14.02;;;;;;;;;;5369149;26;20001;-81
2024/04/15 06:31:26;;;;;;;15.23;13.15;;;;;;;;;;5385488;26;20397;-81
2024/04/15 06:33:54;;;;;;;14.93;12.73;;;;;;;;;;5383284;26;20332;-82
2024/04/15 06:36:21;;;;;;;13.55;12.25;;;;;;;;;;5372100;26;20004;-81
2024/04/15 06:38:48;;;;;;;13.70;12.23;;;;;;;;;;5384631;26;20036;-81
2024/04/15 06:41:16;;;;;;;15.95;12.55;;;;;;;;;;5384227;26;20000;-81
2024/04/15 06:43:43;;;;;;;14.35;12.75;;;;;;;;;;5383778;26;20350;-81
2024/04/15 06:46:10;;;;;;;16.00;12.77;;;;;;;;;;5383510;26;20558;-81
2024/04/15 06:48:40;;;;;;;12.27;10.55;;;;;;;;;;5383219;26;20014;-80
2024/04/15 06:51:07;;;;;;;17.33;11.32;;;;;;;;;;5383229;26;20004;-81
2024/04/15 06:53:35;;;;;;;16.45;11.73;;;;;;;;;;5385397;26;20408;-81
2024/04/15 06:56:02;;;;;;;13.25;11.00;;;;;;;;;;5381910;26;20462;-80
2024/04/15 06:58:30;;;;;;;13.60;11.18;;;;;;;;;;5384236;26;20020;-80
2024/04/15 07:00:57;;;;;;;11.88;10.75;;;;;;;;;;5383583;26;20004;-79
2024/04/15 07:03:25;;;;;;;10.40;9.30;;;;;;;;;;5383555;26;20036;-81
2024/04/15 07:05:52;;;;;;;12.25;9.40;;;;;;;;;;5381527;26;20350;-80
2024/04/15 07:08:20;;;;;;;17.25;9.95;;;;;;;;;;5383469;26;20410;-81
2024/04/15 07:10:47;;;;;;;11.93;9.60;;;;;;;;;;5383778;26;20008;-80
2024/04/15 07:13:14;;;;;;;13.20;9.10;;;;;;;;;;5368932;26;20024;-80
2024/04/15 07:15:42;;;;;;;12.60;8.70;;;;;;;;;;5383648;26;20004;-80
2024/04/15 07:18:09;;;;;;;12.25;8.70;;;;;;;;;;5383456;26;20481;-81
2024/04/15 07:20:38;;;;;;;9.90;8.65;;;;;;;;;;5382791;26;19996;-80
2024/04/15 07:23:06;;;;;;;9.63;8.00;;;;;;;;;;5383724;26;20401;-80
2024/04/15 07:25:33;;;;;;;12.93;10.73;;;;;;;;;;5383350;26;20004;-80
2024/04/15 07:28:00;;;;;;;16.23;12.40;;;;;;;;;;5383151;26;20455;-79
2024/04/15 07:30:28;;;;;;;8.80;8.00;;;;;;;;;;5383571;26;20015;-80
2024/04/15 07:32:55;;;;;;;9.00;6.72;;;;;;;;;;5384098;26;20073;-80
2024/04/15 07:35:23;;;;;;;8.48;6.10;;;;;;;;;;5384232;26;20011;-80
2024/04/15 07:37:51;;;;;;;7.10;6.35;;;;;;;;;;5383782;26;20016;-80
2024/04/15 07:40:18;;;;;;;6.45;5.32;;;;;;;;;;5382049;26;20613;-80
2024/04/15 07:42:45;;;;;;;5.47;4.97;;;;;;;;;;5383155;26;20004;-81
2024/04/15 07:45:13;;;;;;;5.15;4.65;;;;;;;;;;5381305;26;20469;-80
2024/04/15 07:47:40;;;;;;;7.10;4.57;;;;;;;;;;5381829;26;20078;-80
2024/04/15 07:50:08;;;;;;;3.70;3.40;;;;;;;;;;5381520;26;20478;-81
2024/04/15 07:52:35;;;;;;;5.15;4.22;;;;;;;;;;5383472;26;20046;-80
2024/04/15 07:55:03;;;;;;;4.82;4.43;;;;;;;;;;5383203;26;20024;-79
2024/04/15 07:57:31;;;;;;;5.00;4.00;;;;;;;;;;5385128;26;20023;-77
2024/04/15 07:59:58;;;;;;;5.75;3.35;;;;;;;;;;5384563;26;20019;-78
2024/04/15 08:02:26;;;;;;;4.10;3.33;;;;;;;;;;5384541;26;20000;-81
2024/04/15 08:04:53;;;;;;;3.00;2.75;;;;;;;;;;5384526;26;19996;-78
2024/04/15 08:07:21;;;;;;;6.30;3.03;;;;;;;;;;5384086;26;20387;-78
2024/04/15 08:09:48;;;;;;;3.22;2.92;;;;;;;;;;5384085;26;20351;-78
2024/04/15 08:12:15;;;;;;;3.60;2.97;;;;;;;;;;5384034;26;20004;-77
2024/04/15 08:14:43;;;;;;;4.63;2.88;;;;;;;;;;5381539;26;20077;-78
2024/04/15 08:17:10;;;;;;;4.03;2.90;;;;;;;;;;5381649;26;20504;-78
2024/04/15 08:19:38;;;;;;;2.90;2.60;;;;;;;;;;5384032;26;20054;-77
2024/04/15 08:22:06;;;;;;;3.00;2.30;;;;;;;;;;5381046;26;20016;-77
2024/04/15 08:24:33;;;;;;;3.35;2.20;;;;;;;;;;5383021;26;20045;-77
2024/04/15 08:27:00;;;;;;;1.98;1.77;;;;;;;;;;5381424;26;20611;-77
2024/04/15 08:29:28;;;;;;;2.17;1.60;;;;;;;;;;5380699;26;20397;-76
2024/04/15 08:31:55;;;;;;;3.47;1.70;;;;;;;;;;5381516;26;20012;-76
2024/04/15 08:34:22;;;;;;;5.63;1.70;;;;;;;;;;5382020;26;20426;-77
2024/04/15 08:36:50;;;;;;;2.15;1.20;;;;;;;;;;5380886;26;20005;-76
2024/04/15 08:39:17;;;;;;;1.20;1.10;;;;;;;;;;5381954;26;20019;-77
2024/04/15 08:41:49;;;;;;;2.97;1.10;;;;;;;;;;5380178;26;20020;-79
2024/04/15 08:44:33;;;;;;;2.17;1.35;;;;;;;;;;5380898;26;20014;-77
2024/04/15 08:47:04;;;;;;;4.55;1.30;;;;;;;;;;5382106;26;20019;-77
2024/04/15 08:49:32;;;;;;;2.22;1.27;;;;;;;;;;5380304;26;20019;-76
2024/04/15 08:52:01;;;;;;;3.72;1.42;;;;;;;;;;5381777;26;20019;-77
2024/04/15 08:54:28;;;;;;;2.40;1.23;;;;;;;;;;5382285;26;20466;-78
2024/04/15 08:56:58;;;;;;;2.05;1.42;;;;;;;;;;5381347;26;20081;-78
2024/04/15 08:59:26;;;;;;;3.78;1.70;;;;;;;;;;5380442;26;20011;-78
2024/04/15 09:01:54;;;;;;;2.97;1.98;;;;;;;;;;5380246;26;20008;-80
2024/04/15 09:04:23;;;;;;;5.28;1.98;;;;;;;;;;5380842;26;20000;-79
2024/04/15 09:06:50;;;;;;;3.85;1.70;;;;;;;;;;5380769;26;20004;-78
2024/04/15 09:09:18;;;;;;;7.75;1.95;;;;;;;;;;5382807;26;20015;-79
2024/04/15 09:11:52;;;;;;;6.32;1.80;;;;;;;;;;5381713;26;20016;-79
2024/04/15 09:14:22;;;;;;;3.17;1.40;;;;;;;;;;5384115;26;20012;-79
2024/04/15 09:16:49;;;;;;;5.45;1.70;;;;;;;;;;5381699;26;20004;-79
2024/04/15 09:19:16;;;;;;;2.80;1.75;;;;;;;;;;5381093;26;20004;-79
2024/04/15 09:21:45;;;;;;;2.92;1.73;;;;;;;;;;5381270;26;20004;-80
2024/04/15 09:24:12;;;;;;;4.32;2.00;;;;;;;;;;5382739;26;20035;-80
2024/04/15 09:26:40;;;;;;;2.72;1.92;;;;;;;;;;5382928;26;20085;-79
2024/04/15 09:29:09;;;;;;;3.35;1.80;;;;;;;;;;5382121;26;20008;-80
2024/04/15 09:31:37;;;;;;;6.65;2.00;;;;;;;;;;5381221;26;20116;-79
2024/04/15 09:34:05;;;;;;;2.85;1.73;;;;;;;;;;5382940;26;20560;-80
2024/04/15 09:36:34;;;;;;;3.83;2.05;;;;;;;;;;5380598;26;20016;-79
2024/04/15 09:39:02;;;;;;;2.50;2.10;;;;;;;;;;5381606;26;20032;-79
2024/04/15 09:41:30;;;;;;;3.72;1.70;;;;;;;;;;5381728;26;20036;-80
2024/04/15 09:43:59;;;;;;;7.55;1.92;;;;;;;;;;5381706;26;20028;-77
2024/04/15 09:46:32;;;;;;;2.65;1.45;;;;;;;;;;5381528;26;20012;-77
2024/04/15 09:49:02;;;;;;;4.05;1.90;;;;;;;;;;5376618;26;20389;-78
2024/04/15 09:51:32;;;;;;;6.22;1.60;;;;;;;;;;5374558;26;20005;-78
2024/04/15 09:54:01;;;;;;;4.07;1.83;;;;;;;;;;5379929;26;20041;-80
2024/04/15 09:56:30;;;;;;;4.05;1.67;;;;;;;;;;5381479;26;20012;-79
2024/04/15 09:58:57;;;;;;;6.13;1.85;;;;;;;;;;5385084;26;20073;-76
2024/04/15 10:01:31;;;;;;;8.50;1.60;;;;;;;;;;5385292;26;20019;-76
2024/04/15 10:04:16;;;;;;;6.78;1.70;;;;;;;;;;5380983;26;20000;-78
2024/04/15 10:06:47;;;;;;;3.83;1.83;;;;;;;;;;5383667;26;20048;-82
2024/04/15 10:09:18;;;;;;;5.80;1.70;;;;;;;;;;5381069;26;20077;-80
2024/04/15 10:11:46;;;;;;;4.85;1.55;;;;;;;;;;5384285;26;20014;-80
2024/04/15 10:14:14;;;;;;;6.18;1.70;;;;;;;;;;5381669;26;20077;-81
2024/04/15 10:16:45;;;;;;;7.40;1.52;;;;;;;;;;5381322;26;20054;-80
2024/04/15 10:19:22;;;;;;;5.53;1.50;;;;;;;;;;5382427;26;20004;-79
2024/04/15 10:21:49;;;;;;;10.40;1.65;;;;;;;;;;5380852;26;20353;-81
2024/04/15 10:24:17;;;;;;;6.60;1.48;;;;;;;;;;5381270;26;20021;-81
2024/04/15 10:26:44;;;;;;;5.57;1.42;;;;;;;;;;5383082;26;20001;-80
2024/04/15 10:29:18;;;;;;;4.85;1.75;;;;;;;;;;5381146;26;20384;-81
2024/04/15 10:31:53;;;;;;;2.95;1.58;;;;;;;;;;5380662;26;20404;-80
2024/04/15 10:34:23;;;;;;;3.95;1.17;;;;;;;;;;5382748;26;19996;-80
2024/04/15 10:36:52;;;;;;;4.43;1.58;;;;;;;;;;5380401;26;20015;-80
2024/04/15 10:39:20;;;;;;;4.88;1.63;;;;;;;;;;5380157;26;20009;-80
2024/04/15 10:41:48;;;;;;;10.95;1.77;;;;;;;;;;5380361;26;20524;-80
2024/04/15 10:44:16;;;;;;;6.40;1.88;;;;;;;;;;5382148;26;20009;-79
2024/04/15 10:46:44;;;;;;;2.10;1.40;;;;;;;;;;5380139;26;20040;-80
2024/04/15 10:49:12;;;;;;;2.28;1.50;;;;;;;;;;5381953;26;20040;-81
2024/04/15 10:51:39;;;;;;;5.43;1.67;;;;;;;;;;5382247;26;20007;-81
2024/04/15 10:54:06;;;;;;;6.18;1.42;;;;;;;;;;5379881;26;20008;-80
2024/04/15 10:56:34;;;;;;;3.35;1.25;;;;;;;;;;5381884;26;20001;-81
2024/04/15 10:59:02;;;;;;;8.70;1.67;;;;;;;;;;5384935;26;20016;-80
2024/04/15 11:01:29;;;;;;;4.38;1.13;;;;;;;;;;5383861;26;20077;-79
2024/04/15 11:03:56;;;;;;;4.57;1.65;;;;;;;;;;5383838;26;20001;-80
2024/04/15 11:06:24;;;;;;;5.55;1.50;;;;;;;;;;5383941;26;20004;-80
2024/04/15 11:08:51;;;;;;;7.35;1.50;;;;;;;;;;5384931;26;20004;-79
2024/04/15 11:11:19;;;;;;;5.60;1.65;;;;;;;;;;5385840;26;20015;-80
2024/04/15 11:13:52;;;;;;;5.03;1.57;;;;;;;;;;5383169;26;20007;-77
2024/04/15 11:16:19;;;;;;;3.70;1.27;;;;;;;;;;5385857;26;20354;-81
2024/04/15 11:18:47;;;;;;;3.67;1.55;;;;;;;;;;5385715;26;20015;-80
2024/04/15 11:21:15;;;;;;;5.18;1.80;;;;;;;;;;5382906;26;20477;-81
2024/04/15 11:23:42;;;;;;;5.55;1.50;;;;;;;;;;5385273;26;20016;-80
2024/04/15 11:26:12;;;;;;;4.57;2.00;;;;;;;;;;5382232;26;20665;-78
2024/04/15 11:28:40;;;;;;;6.10;1.55;;;;;;;;;;5383768;26;20016;-78
2024/04/15 11:31:07;;;;;;;5.07;1.25;;;;;;;;;;5384444;26;20011;-81
2024/04/15 11:33:35;;;;;;;4.38;1.17;;;;;;;;;;5388210;26;20041;-79
2024/04/15 11:36:03;;;;;;;14.10;1.80;;;;;;;;;;5392321;26;20001;-81
2024/04/15 11:38:30;;;;;;;8.40;1.45;;;;;;;;;;5396929;26;20005;-79
2024/04/15 11:40:57;;;;;;;3.00;1.10;;;;;;;;;;5384046;26;20343;-78
2024/04/15 11:43:25;;;;;;;5.05;1.15;;;;;;;;;;5382155;26;20051;-78
2024/04/15 11:45:56;;;;;;;5.03;1.20;;;;;;;;;;5377974;26;20012;-79
2024/04/15 11:48:27;;;;;;;4.38;1.80;;;;;;;;;;5383004;26;20018;-80
2024/04/15 11:50:55;;;;;;;2.33;1.70;;;;;;;;;;5374603;26;20012;-79
2024/04/15 11:53:24;;;;;;;4.10;1.50;;;;;;;;;;5381657;26;20004;-79
2024/04/15 11:55:53;;;;;;;3.35;1.55;;;;;;;;;;5386141;26;20000;-79
2024/04/15 11:58:23;;;;;;;7.30;1.70;;;;;;;;;;5385485;26;20382;-80
2024/04/15 12:00:51;;;;;;;6.90;1.73;;;;;;;;;;5383154;26;20032;-79
2024/04/15 12:03:21;;;;;;;2.25;1.48;;;;;;;;;;5382582;26;20048;-80
2024/04/15 12:05:49;;;;;;;3.08;1.10;;;;;;;;;;5382574;26;20015;-79
2024/04/15 12:08:20;;;;;;;4.72;1.75;;;;;;;;;;5384342;26;20004;-80
2024/04/15 12:10:48;;;;;;;4.85;1.40;;;;;;;;;;5386360;26;20032;-82
2024/04/15 12:13:15;;;;;;;2.05;1.33;;;;;;;;;;5385539;26;20461;-81
2024/04/15 12:15:43;;;;;;;6.35;1.50;;;;;;;;;;5383406;26;20004;-80
2024/04/15 12:18:10;;;;;;;4.45;1.30;;;;;;;;;;5383756;26;20020;-80
2024/04/15 12:20:37;;;;;;;4.82;1.20;;;;;;;;;;5382735;26;20355;-80
2024/04/15 12:23:05;;;;;;;5.57;1.48;;;;;;;;;;5382690;26;20094;-80
2024/04/15 12:25:32;;;;;;;8.15;1.67;;;;;;;;;;5383321;26;20008;-80
2024/04/15 12:27:59;;;;;;;16.60;1.98;;;;;;;;;;5370287;26;20035;-77
2024/04/15 12:30:27;;;;;;;4.63;1.77;;;;;;;;;;5384758;26;20036;-81
2024/04/15 12:32:56;;;;;;;4.03;1.50;;;;;;;;;;5383340;26;20405;-80
2024/04/15 12:35:24;;;;;;;4.07;1.35;;;;;;;;;;5384616;26;20000;-81
2024/04/15 12:37:51;;;;;;;5.20;1.40;;;;;;;;;;5382267;26;20044;-81
2024/04/15 12:40:19;;;;;;;11.75;1.60;;;;;;;;;;5383043;26;20050;-80
2024/04/15 12:42:46;;;;;;;3.22;1.20;;;;;;;;;;5386063;26;20015;-82
2024/04/15 12:45:16;;;;;;;4.13;1.35;;;;;;;;;;5386172;26;20000;-83
2024/04/15 12:47:44;;;;;;;5.07;1.67;;;;;;;;;;5385816;26;20398;-82
2024/04/15 12:50:12;;;;;;;4.68;1.30;;;;;;;;;;5384678;26;20008;-85
2024/04/15 12:52:39;;;;;;;6.90;1.85;;;;;;;;;;5386285;26;20000;-79
2024/04/15 12:55:07;;;;;;;3.47;1.25;;;;;;;;;;5386343;26;20004;-80
2024/04/15 12:57:34;;;;;;;3.92;1.60;;;;;;;;;;5386544;26;20023;-82
2024/04/15 13:00:02;;;;;;;4.90;1.50;;;;;;;;;;5386873;26;20012;-82
2024/04/15 13:02:29;;;;;;;5.65;1.50;;;;;;;;;;5385239;26;20015;-82
2024/04/15 13:04:57;;;;;;;4.97;1.38;;;;;;;;;;5388979;26;20003;-81
2024/04/15 13:07:25;;;;;;;5.70;1.42;;;;;;;;;;5383598;26;20528;-81
2024/04/15 13:09:52;;;;;;;5.95;2.13;;;;;;;;;;5381883;26;20447;-83
2024/04/15 13:12:20;;;;;;;7.90;1.90;;;;;;;;;;5380957;26;20082;-80
2024/04/15 13:14:47;;;;;;;5.50;1.70;;;;;;;;;;5380864;26;20012;-78
2024/04/15 13:17:14;;;;;;;3.25;1.50;;;;;;;;;;5380090;26;20016;-80
2024/04/15 13:19:42;;;;;;;10.10;1.90;;;;;;;;;;5380717;26;20019;-79
2024/04/15 13:22:09;;;;;;;4.25;1.30;;;;;;;;;;5379932;26;20077;-79
2024/04/15 13:24:37;;;;;;;4.40;1.40;;;;;;;;;;5381614;26;20041;-80
2024/04/15 13:27:04;;;;;;;3.60;1.38;;;;;;;;;;5380090;26;20004;-77
2024/04/15 13:29:33;;;;;;;6.60;1.60;;;;;;;;;;5382448;26;20074;-81
2024/04/15 13:32:01;;;;;;;4.40;1.52;;;;;;;;;;5380324;26;20012;-78
2024/04/15 13:34:43;;;;;;;5.28;1.38;;;;;;;;;;5382259;26;20000;-80
2024/04/15 13:37:11;;;;;;;3.97;1.52;;;;;;;;;;5380178;26;20531;-81
2024/04/15 13:39:39;;;;;;;6.38;1.50;;;;;;;;;;5381264;26;20019;-80
2024/04/15 13:42:08;;;;;;;3.22;1.45;;;;;;;;;;5382998;26;20008;-80
2024/04/15 13:44:36;;;;;;;3.25;1.50;;;;;;;;;;5380777;26;20012;-80
2024/04/15 13:47:03;;;;;;;4.05;1.42;;;;;;;;;;5380585;26;20008;-80
2024/04/15 13:49:31;;;;;;;4.18;1.20;;;;;;;;;;5381235;26;20044;-80
2024/04/15 13:52:00;;;;;;;2.83;1.58;;;;;;;;;;5382195;26;20016;-81
2024/04/15 13:54:28;;;;;;;2.10;1.10;;;;;;;;;;5381983;26;20008;-81
2024/04/15 13:56:56;;;;;;;4.18;1.13;;;;;;;;;;5380608;26;20004;-80
2024/04/15 13:59:24;;;;;;;4.45;1.17;;;;;;;;;;5380411;26;20014;-81
2024/04/15 14:01:52;;;;;;;3.30;1.17;;;;;;;;;;5382260;26;20020;-78
2024/04/15 14:04:19;;;;;;;3.28;0.68;;;;;;;;;;5381920;26;20363;-78
2024/04/15 14:06:47;;;;;;;4.70;1.10;;;;;;;;;;5380206;26;20086;-79
2024/04/15 14:09:18;;;;;;;2.35;0.90;;;;;;;;;;5380033;26;20078;-80
2024/04/15 14:11:47;;;;;;;5.40;1.05;;;;;;;;;;5381888;26;20016;-80
2024/04/15 14:14:16;;;;;;;3.10;1.00;;;;;;;;;;5381725;26;20077;-79
2024/04/15 14:16:45;;;;;;;4.20;1.05;;;;;;;;;;5381412;26;20078;-80
2024/04/15 14:19:13;;;;;;;2.30;0.93;;;;;;;;;;5383986;26;20015;-82
2024/04/15 14:21:41;;;;;;;2.10;0.80;;;;;;;;;;5382033;26;20004;-82
2024/04/15 14:24:08;;;;;;;1.60;0.88;;;;;;;;;;5382886;26;20016;-81
2024/04/15 14:26:37;;;;;;;1.92;0.82;;;;;;;;;;5380347;26;20450;-82
2024/04/15 14:29:04;;;;;;;1.73;0.63;;;;;;;;;;5380471;26;20366;-81
2024/04/15 14:31:32;;;;;;;4.88;0.70;;;;;;;;;;5382591;26;20478;-79
2024/04/15 14:33:59;;;;;;;1.20;0.80;;;;;;;;;;5385625;26;19997;-81
2024/04/15 14:36:26;;;;;;;2.75;1.00;;;;;;;;;;5385412;26;20004;-80
2024/04/15 14:38:57;;;;;;;5.75;1.10;;;;;;;;;;5385263;26;20015;-79
2024/04/15 14:41:25;;;;;;;2.90;0.82;;;;;;;;;;5386633;26;20012;-81